Telluride Airport South Webcam

Telluride Airport North Webcam


Local Weather

METAR KTEX 260755Z AUTO 13004KT 10SM CLR 02/00 A3018 RMK AO2

TAF KTEX 260520Z 2606/2706 27007KT P6SM FEW030 SCT060 FM261000 00000KT P6SM FEW060 FM261600 30005KT P6SM SCT060

** THIS IS NOT AN OFFICIAL WEATHER REPORT AND MAY NOT BE RELIABLE **